ADDS METAR Data INFO
IDs: Format: Raw Decoded Include TAF

Data at: 1133 UTC 29 May 2017

KHHF 291115Z AUTO 00000KT 10SM CLR 08/07 A3011 RMK AO2 T00840072
KHHF 291055Z AUTO 00000KT 10SM CLR 09/08 A3010 RMK AO2 T00930075
KHHF 291035Z AUTO 26003KT 10SM CLR 10/08 A3010 RMK AO2 T01000076
KHHF 291015Z AUTO 31003KT 10SM CLR 09/08 A3011 RMK AO2 T00930078
KHHF 290955Z AUTO 00000KT 10SM CLR 10/08 A3011 RMK AO2 T01000080
KHHF 290935Z AUTO 00000KT 10SM CLR 10/08 A3012 RMK AO2 T01000081
KHHF 290915Z AUTO 20004KT 10SM CLR 10/08 A3012 RMK AO2 T00950081
KHHF 290855Z AUTO 00000KT 10SM CLR 09/08 A3013 RMK AO2 T00890081
KHHF 290835Z AUTO 00000KT 10SM CLR 09/08 A3013 RMK AO2 T00940077
KHHF 290815Z AUTO 22003KT 10SM CLR 09/08 A3014 RMK AO2 T00930080
KHHF 290755Z AUTO 00000KT 10SM CLR 12/09 A3014 RMK AO2 T01180085
KHHF 290735Z AUTO 06004KT 10SM CLR 11/09 A3014 RMK AO2 T01060086
KHHF 290715Z AUTO 00000KT 10SM CLR 09/08 A3013 RMK AO2 T00910079
KHHF 290655Z AUTO 00000KT 10SM CLR 10/09 A3012 RMK AO2 T00970085
KHHF 290635Z AUTO 22004KT 10SM CLR 10/09 A3011 RMK AO2 T01020085
KHHF 290615Z AUTO 00000KT 10SM CLR 12/09 A3011 RMK AO2 T01150087
KHHF 290555Z AUTO 00000KT 10SM CLR 12/09 A3011 RMK AO2 T01190089 10261 20113 402660113
KHHF 290535Z AUTO 00000KT 10SM CLR 12/09 A3010 RMK AO2 T01200091
KHHF 290515Z AUTO 22003KT 10SM CLR 13/10 A3010 RMK AO2 T01260095
KHHF 290455Z AUTO 00000KT 10SM CLR 12/09 A3010 RMK AO2 T01180093
KHHF 290435Z AUTO 24004KT 10SM CLR 12/09 A3009 RMK AO2 T01180090
KHHF 290415Z AUTO 24004KT 10SM CLR 13/09 A3009 RMK AO2 T01270092
KHHF 290355Z AUTO 23004KT 10SM CLR 13/10 A3009 RMK AO2 T01270096
KHHF 290335Z AUTO 22003KT 10SM CLR 13/10 A3008 RMK AO2 T01270097
KHHF 290315Z AUTO 21003KT 10SM CLR 13/10 A3008 RMK AO2 T01340097
KHHF 290255Z AUTO 20003KT 10SM CLR 14/10 A3007 RMK AO2 T01430100
KHHF 290235Z AUTO 20003KT 10SM CLR 16/10 A3007 RMK AO2 T01580104
KHHF 290215Z AUTO 00000KT 10SM CLR 18/10 A3007 RMK AO2 T01830102
KHHF 290155Z AUTO 00000KT 10SM CLR 21/08 A3007 RMK AO2 T02110082
KHHF 290135Z AUTO 00000KT 10SM CLR 24/07 A3007 RMK AO2 T02400072
KHHF 290115Z AUTO 02004KT 10SM CLR 24/08 A3007 RMK AO2 T02400077
KHHF 290055Z AUTO 03005KT 10SM CLR 25/06 A3007 RMK AO2 T02480060
KHHF 290035Z AUTO 36005KT 10SM CLR 26/06 A3007 RMK AO2 T02550055
KHHF 290015Z AUTO 01007KT 10SM CLR 26/06 A3007 RMK AO2 T02580060
KHHF 282355Z AUTO 36005KT 10SM CLR 26/06 A3007 RMK AO2 T02610062 10266 20239
KHHF 282335Z AUTO 36006KT 10SM CLR 26/05 A3007 RMK AO2 T02610050
KHHF 282315Z AUTO 36006KT 10SM CLR 26/05 A3008 RMK AO2 T02620051
KHHF 282255Z AUTO 02005G15KT 10SM CLR 26/05 A3009 RMK AO2 T02640054
KHHF 282235Z AUTO 32005G08KT 10SM CLR 26/05 A3009 RMK AO2 T02640051
KHHF 282215Z AUTO 36012KT 10SM CLR 26/06 A3009 RMK AO2 T02640058
KHHF 282155Z AUTO 03010G14KT 10SM CLR 27/06 A3010 RMK AO2 T02650063
KHHF 282135Z AUTO 03006KT 10SM CLR 26/06 A3011 RMK AO2 T02600062
KHHF 282115Z AUTO 01005KT 10SM CLR 26/05 A3011 RMK AO2 T02600053
KHHF 282055Z AUTO 35008KT 10SM CLR 26/06 A3012 RMK AO2 T02600057
KHHF 282035Z AUTO 33010G17KT 10SM CLR 26/05 A3012 RMK AO2 T02580049
KHHF 282015Z AUTO 03007KT 10SM CLR 26/05 A3012 RMK AO2 T02560045
KHHF 281955Z AUTO 02006G14KT 10SM CLR 25/05 A3013 RMK AO2 T02510045
KHHF 281935Z AUTO 35010G16KT 10SM CLR 25/06 A3014 RMK AO2 T02530055
KHHF 281915Z AUTO 02009KT 10SM CLR 25/06 A3014 RMK AO2 T02500056
KHHF 281855Z AUTO 36006KT 10SM CLR 25/06 A3015 RMK AO2 T02460061
KHHF 281835Z AUTO 02010KT 10SM CLR 24/07 A3016 RMK AO2 T02440065
KHHF 281815Z AUTO 36007G15KT 10SM CLR 24/07 A3016 RMK AO2 T02400072
KHHF 281755Z AUTO 01010KT 10SM CLR 24/09 A3016 RMK AO2 T02370089 10239 20127
KHHF 281735Z AUTO 35010KT 10SM CLR 24/10 A3017 RMK AO2 T02350095
KHHF 281715Z AUTO 36009G18KT 10SM CLR 23/09 A3017 RMK AO2 T02300086
KHHF 281655Z AUTO 03008G16KT 10SM CLR 23/10 A3017 RMK AO2 T02280096
KHHF 281635Z AUTO 01012G16KT 10SM CLR 22/10 A3017 RMK AO2 T02210097
KHHF 281615Z AUTO 36010KT 10SM CLR 22/10 A3016 RMK AO2 T02200097
KHHF 281555Z AUTO 02009KT 10SM CLR 22/11 A3016 RMK AO2 T02150106
KHHF 281535Z AUTO 34009G15KT 10SM CLR 21/11 A3016 RMK AO2 T02070113
KHHF 281515Z AUTO 36012KT 10SM CLR 20/12 A3016 RMK AO2 T02040118
KHHF 281455Z AUTO 35010G15KT 10SM CLR 20/12 A3016 RMK AO2 T01950116
KHHF 281435Z AUTO 34011KT 10SM CLR 19/12 A3017 RMK AO2 T01860119
KHHF 281415Z AUTO 34007KT 10SM CLR 18/12 A3016 RMK AO2 T01770123
KHHF 281355Z AUTO 34007KT 10SM CLR 17/12 A3016 RMK AO2 T01670122
KHHF 281335Z AUTO 34006KT 10SM CLR 16/12 A3015 RMK AO2 T01600120
KHHF 281315Z AUTO 34006KT 10SM CLR 15/12 A3015 RMK AO2 T01520118
KHHF 281255Z AUTO 34004KT 10SM CLR 14/12 A3014 RMK AO2 T01420116
KHHF 281235Z AUTO 33004KT 10SM CLR 14/11 A3013 RMK AO2 T01360114
KHHF 281215Z AUTO 35006KT 10SM CLR 13/11 A3012 RMK AO2 T01320111
KHHF 281155Z AUTO 34005KT 10SM CLR 13/11 A3010 RMK AO2 70001 T01270110 10155 20113
KHHF 281135Z AUTO 00000KT 10SM CLR 13/11 A3010 RMK AO2 T01270110
KHHF 281115Z AUTO 34003KT 10SM SCT110 13/11 A3010 RMK AO2 T01270111
KHHF 281055Z AUTO 00000KT 10SM CLR 13/11 A3009 RMK AO2 T01270108
KHHF 281035Z AUTO 00000KT 10SM CLR 13/11 A3009 RMK AO2 T01260107
KHHF 281015Z AUTO 32003KT 10SM CLR 13/11 A3008 RMK AO2 LTG DSNT E T01270105
KHHF 280955Z AUTO 32003KT 10SM CLR 13/11 A3007 RMK AO2 T01270106
KHHF 280935Z AUTO 00000KT 10SM CLR 13/11 A3007 RMK AO2 T01260108
KHHF 280915Z AUTO 30005KT 10SM CLR 12/11 A3007 RMK AO2 T01180105
KHHF 280855Z AUTO 27004KT 10SM CLR 11/10 A3006 RMK AO2 T01130103
KHHF 280835Z AUTO 00000KT 10SM CLR 14/11 A3005 RMK AO2 T01360110
KHHF 280815Z AUTO 00000KT 10SM CLR 14/11 A3005 RMK AO2 T01350110
KHHF 280755Z AUTO 34005KT 10SM CLR 14/11 A3006 RMK AO2 T01350110
KHHF 280735Z AUTO 32006KT 10SM CLR 14/11 A3006 RMK AO2 T01410111
KHHF 280715Z AUTO 35006KT 10SM CLR 15/11 A3005 RMK AO2 T01450111
KHHF 280655Z AUTO 03004KT 10SM CLR 15/11 A3004 RMK AO2 T01470110
KHHF 280635Z AUTO 03004KT 10SM CLR 15/11 A3005 RMK AO2 T01500111
KHHF 280615Z AUTO 35005KT 10SM CLR 15/11 A3005 RMK AO2 T01520111
KHHF 280555Z AUTO 01009G14KT 10SM CLR 15/12 A3004 RMK AO2 60001 T01540115 10277 20146 402930146
KHHF 280535Z AUTO 01008G14KT 10SM CLR 15/12 A3003 RMK AO2 T01510124
KHHF 280515Z AUTO 01012G21KT 10SM CLR 15/13 A3003 RMK AO2 T01510130
KHHF 280455Z AUTO 35008G17KT 10SM CLR 15/13 A3002 RMK AO2 LTG DSNT NE P0004 T01500131
KHHF 280435Z AUTO 36007KT 10SM SCT050 15/13 A3001 RMK AO2 LTG DSNT NE P0004 T01460127
KHHF 280415Z AUTO 36011KT 10SM SCT042 SCT050 BKN070 15/13 A3001 RMK AO2 P0004 T01520125
KHHF 280355Z AUTO 33004G22KT 7SM +VCTSRA SCT023 BKN065 OVC075 18/13 A3003 RMK AO2 LTG DSNT ALQS P0003 T01750132
KHHF 280335Z AUTO 35022G28KT 10SM BKN050 OVC065 21/14 A2998 RMK AO2 LTG DSNT N AND W T02090138
KHHF 280315Z AUTO 01012G17KT 10SM SCT050 BKN065 22/16 A2995 RMK AO2 LTG DSNT N T02210156
KHHF 280255Z AUTO 36008KT 10SM CLR 22/16 A2994 RMK AO2 LTG DSNT N AND NW T02210156
KHHF 280235Z AUTO 03008KT 10SM CLR 23/16 A2990 RMK AO2 LTG DSNT NW T02250157
KHHF 280215Z AUTO 03009KT 10SM CLR 23/16 A2989 RMK AO2 T02310159
KHHF 280155Z AUTO 03009KT 10SM CLR 24/16 A2988 RMK AO2 LTG DSNT NW T02400164
KHHF 280135Z AUTO 02011G14KT 10SM CLR 25/17 A2987 RMK AO2 T02460165
KHHF 280115Z AUTO 02011G15KT 10SM CLR 26/17 A2986 RMK AO2 T02560169
KHHF 280055Z AUTO 03008KT 10SM CLR 27/17 A2985 RMK AO2 T02650171
KHHF 280035Z AUTO 03011G16KT 10SM CLR 27/17 A2985 RMK AO2 T02690172
KHHF 280015Z AUTO 04010KT 10SM CLR 27/17 A2985 RMK AO2 T02730171
KHHF 272355Z AUTO 02011KT 10SM CLR 28/17 A2985 RMK AO2 T02760173 10293 20274
KHHF 272335Z AUTO 03010KT 360V070 10SM CLR 28/17 A2985 RMK AO2 T02810168


Page loaded:  11:33 UTC  |   04:33 AM Pacific  |   05:33 AM Mountain  |   06:33 AM Central  |   07:33 AM Eastern

 

ADVISORIES

FORECASTS

FORECASTS

OBSERVATIONS

USER TOOLS

ABOUT US